createdAt,value
2017-10-09T00:00:23.925Z,1011.78
2017-10-09T00:01:23.910Z,1011.8
2017-10-09T00:02:23.890Z,1011.77
2017-10-09T00:03:23.872Z,1011.77
2017-10-09T00:04:23.857Z,1011.77
2017-10-09T00:05:23.837Z,1011.78
2017-10-09T00:06:23.821Z,1011.76
2017-10-09T00:07:23.804Z,1011.79
2017-10-09T00:08:23.787Z,1011.79
2017-10-09T00:09:23.767Z,1011.73
2017-10-09T00:10:23.750Z,1011.79
2017-10-09T00:11:23.745Z,1011.81
2017-10-09T00:12:23.716Z,1011.78
2017-10-09T00:13:23.700Z,1011.78
2017-10-09T00:14:23.683Z,1011.79
2017-10-09T00:15:23.664Z,1011.76
2017-10-09T00:16:23.648Z,1011.79
2017-10-09T00:17:23.832Z,1011.82
2017-10-09T00:18:23.613Z,1011.77
2017-10-09T00:19:23.595Z,1011.79
2017-10-09T00:20:23.576Z,1011.86
2017-10-09T00:21:23.560Z,1011.81
2017-10-09T00:22:23.543Z,1011.81
2017-10-09T00:23:23.529Z,1011.8
2017-10-09T00:24:23.509Z,1011.84
2017-10-09T00:25:23.492Z,1011.82
2017-10-09T00:26:23.476Z,1011.81
2017-10-09T00:27:23.460Z,1011.79
2017-10-09T00:28:23.440Z,1011.77
2017-10-09T00:29:23.421Z,1011.74
2017-10-09T00:30:23.408Z,1011.74
2017-10-09T00:31:23.385Z,1011.74
2017-10-09T00:32:23.372Z,1011.73
2017-10-09T00:33:23.351Z,1011.73
2017-10-09T00:34:23.336Z,1011.73
2017-10-09T00:35:23.316Z,1011.76
2017-10-09T00:36:23.299Z,1011.76
2017-10-09T00:37:23.283Z,1011.76
2017-10-09T00:38:23.264Z,1011.76
2017-10-09T00:39:23.250Z,1011.78
2017-10-09T00:40:23.231Z,1011.79
2017-10-09T00:41:23.213Z,1011.81
2017-10-09T00:42:23.195Z,1011.8
2017-10-09T00:43:23.176Z,1011.78
2017-10-09T00:44:23.161Z,1011.79
2017-10-09T00:45:23.143Z,1011.81
2017-10-09T00:46:23.127Z,1011.85
2017-10-09T00:47:23.108Z,1011.83
2017-10-09T00:48:23.091Z,1011.81
2017-10-09T00:49:23.073Z,1011.86
2017-10-09T00:50:23.056Z,1011.81
2017-10-09T00:51:23.038Z,1011.81
2017-10-09T00:52:23.020Z,1011.84
2017-10-09T00:53:23.001Z,1011.83
2017-10-09T00:54:22.985Z,1011.86
2017-10-09T00:55:22.970Z,1011.8
2017-10-09T00:56:22.949Z,1011.89
2017-10-09T00:57:22.935Z,1011.87
2017-10-09T00:58:22.914Z,1011.8
2017-10-09T00:59:22.896Z,1011.79
2017-10-09T01:00:22.878Z,1011.85
2017-10-09T01:01:22.863Z,1011.8
2017-10-09T01:02:22.845Z,1011.81
2017-10-09T01:03:22.829Z,1011.81
2017-10-09T01:04:22.811Z,1011.79
2017-10-09T01:05:22.791Z,1011.78
2017-10-09T01:06:22.774Z,1011.8
2017-10-09T01:07:22.758Z,1011.79
2017-10-09T01:08:22.739Z,1011.82
2017-10-09T01:09:22.723Z,1011.79
2017-10-09T01:10:22.704Z,1011.8
2017-10-09T01:11:22.685Z,1011.81
2017-10-09T01:12:22.669Z,1011.79
2017-10-09T01:13:22.653Z,1011.79
2017-10-09T01:14:22.636Z,1011.78
2017-10-09T01:15:22.619Z,1011.78
2017-10-09T01:16:22.601Z,1011.78
2017-10-09T01:17:22.583Z,1011.77
2017-10-09T01:18:22.566Z,1011.77
2017-10-09T01:19:22.546Z,1011.76
2017-10-09T01:20:22.532Z,1011.77
2017-10-09T01:21:22.514Z,1011.75
2017-10-09T01:22:22.495Z,1011.73
2017-10-09T01:23:22.477Z,1011.77
2017-10-09T01:24:22.460Z,1011.75
2017-10-09T01:25:22.443Z,1011.73
2017-10-09T01:26:22.424Z,1011.75
2017-10-09T01:27:22.406Z,1011.78
2017-10-09T01:28:22.391Z,1011.75
2017-10-09T01:29:22.373Z,1011.73
2017-10-09T01:30:22.354Z,1011.72
2017-10-09T01:31:22.336Z,1011.74
2017-10-09T01:32:22.320Z,1011.73
2017-10-09T01:33:22.302Z,1011.76
2017-10-09T01:34:22.288Z,1011.75
2017-10-09T01:35:22.267Z,1011.71
2017-10-09T01:36:22.251Z,1011.7
2017-10-09T01:37:22.233Z,1011.73
2017-10-09T01:38:22.216Z,1011.74
2017-10-09T01:39:22.197Z,1011.7
2017-10-09T01:40:22.182Z,1011.7
2017-10-09T01:41:22.162Z,1011.7
2017-10-09T01:42:22.145Z,1011.67
2017-10-09T01:43:22.132Z,1011.64
2017-10-09T01:44:22.111Z,1011.68
2017-10-09T01:45:22.091Z,1011.65
2017-10-09T01:46:22.074Z,1011.67
2017-10-09T01:47:22.062Z,1011.65
2017-10-09T01:48:22.040Z,1011.68
2017-10-09T01:49:22.023Z,1011.67
2017-10-09T01:50:22.006Z,1011.68
2017-10-09T01:51:21.988Z,1011.7
2017-10-09T01:52:21.971Z,1011.68
2017-10-09T01:53:21.972Z,1011.66
2017-10-09T01:54:21.936Z,1011.66
2017-10-09T01:55:21.918Z,1011.62
2017-10-09T01:56:21.901Z,1011.61
2017-10-09T01:57:21.884Z,1011.63
2017-10-09T01:58:21.866Z,1011.65
2017-10-09T01:59:21.849Z,1011.64
2017-10-09T02:00:21.831Z,1011.62
2017-10-09T02:01:21.813Z,1011.62
2017-10-09T02:02:21.797Z,1011.61
2017-10-09T02:03:21.779Z,1011.63
2017-10-09T02:04:21.761Z,1011.58
2017-10-09T02:05:21.744Z,1011.55
2017-10-09T02:06:21.725Z,1011.58
2017-10-09T02:07:21.711Z,1011.56
2017-10-09T02:08:21.692Z,1011.57
2017-10-09T02:09:21.675Z,1011.57
2017-10-09T02:10:21.657Z,1011.58
2017-10-09T02:11:21.649Z,1011.6
2017-10-09T02:12:21.626Z,1011.6
2017-10-09T02:13:21.605Z,1011.59
2017-10-09T02:14:21.586Z,1011.63
2017-10-09T02:15:21.568Z,1011.61
2017-10-09T02:16:21.551Z,1011.62
2017-10-09T02:17:21.740Z,1011.63
2017-10-09T02:18:21.515Z,1011.62
2017-10-09T02:19:21.498Z,1011.64
2017-10-09T02:20:21.480Z,1011.66
2017-10-09T02:21:21.463Z,1011.64
2017-10-09T02:22:21.466Z,1011.62
2017-10-09T02:23:21.428Z,1011.63
2017-10-09T02:24:21.409Z,1011.64
2017-10-09T02:25:21.392Z,1011.65
2017-10-09T02:26:21.374Z,1011.66
2017-10-09T02:27:21.357Z,1011.63
2017-10-09T02:28:21.338Z,1011.66
2017-10-09T02:29:21.322Z,1011.66
2017-10-09T02:30:21.304Z,1011.68
2017-10-09T02:31:21.287Z,1011.7
2017-10-09T02:32:21.277Z,1011.71
2017-10-09T02:33:21.253Z,1011.7
2017-10-09T02:34:21.233Z,1011.68
2017-10-09T02:35:21.215Z,1011.65
2017-10-09T02:36:21.197Z,1011.66
2017-10-09T02:37:21.180Z,1011.65
2017-10-09T02:38:21.162Z,1011.63
2017-10-09T02:39:21.145Z,1011.68
2017-10-09T02:40:21.129Z,1011.62
2017-10-09T02:41:21.111Z,1011.65
2017-10-09T02:42:21.093Z,1011.66
2017-10-09T02:43:21.076Z,1011.66
2017-10-09T02:44:21.056Z,1011.68
2017-10-09T02:45:21.045Z,1011.67
2017-10-09T02:46:21.024Z,1011.67
2017-10-09T02:47:21.004Z,1011.63
2017-10-09T02:48:20.986Z,1011.66
2017-10-09T02:49:20.969Z,1011.66
2017-10-09T02:50:20.954Z,1011.64
2017-10-09T02:51:20.939Z,1011.65
2017-10-09T02:52:20.918Z,1011.67
2017-10-09T02:53:20.898Z,1011.69
2017-10-09T02:54:20.885Z,1011.69
2017-10-09T02:55:20.864Z,1011.72
2017-10-09T02:56:20.845Z,1011.69
2017-10-09T02:57:20.826Z,1011.7
2017-10-09T02:58:20.809Z,1011.7
2017-10-09T02:59:20.793Z,1011.75
2017-10-09T03:00:20.774Z,1011.75
2017-10-09T03:01:20.758Z,1011.72
2017-10-09T03:02:20.741Z,1011.71
2017-10-09T03:03:20.719Z,1011.72
2017-10-09T03:04:20.704Z,1011.72
2017-10-09T03:05:20.683Z,1011.74
2017-10-09T03:06:20.666Z,1011.72
2017-10-09T03:07:20.651Z,1011.74
2017-10-09T03:08:20.637Z,1011.68
2017-10-09T03:09:20.612Z,1011.68
2017-10-09T03:10:20.595Z,1011.66
2017-10-09T03:11:20.580Z,1011.68
2017-10-09T03:12:20.559Z,1011.71
2017-10-09T03:13:20.541Z,1011.72
2017-10-09T03:14:20.526Z,1011.67
2017-10-09T03:15:20.506Z,1011.68
2017-10-09T03:16:20.488Z,1011.66
2017-10-09T03:17:20.470Z,1011.65
2017-10-09T03:18:20.452Z,1011.65
2017-10-09T03:19:20.432Z,1011.65
2017-10-09T03:20:20.417Z,1011.64
2017-10-09T03:21:20.401Z,1011.63
2017-10-09T03:22:20.380Z,1011.62
2017-10-09T03:23:20.362Z,1011.62
2017-10-09T03:24:20.344Z,1011.61
2017-10-09T03:25:20.326Z,1011.62
2017-10-09T03:26:20.308Z,1011.63
2017-10-09T03:27:20.295Z,1011.59
2017-10-09T03:28:20.277Z,1011.6
2017-10-09T03:29:20.255Z,1011.63
2017-10-09T03:30:20.237Z,1011.63
2017-10-09T03:31:20.218Z,1011.58
2017-10-09T03:32:20.200Z,1011.59
2017-10-09T03:33:20.184Z,1011.6
2017-10-09T03:34:20.164Z,1011.57
2017-10-09T03:35:20.147Z,1011.57
2017-10-09T03:36:20.131Z,1011.59
2017-10-09T03:37:20.111Z,1011.6
2017-10-09T03:38:20.094Z,1011.56
2017-10-09T03:39:20.087Z,1011.61
2017-10-09T03:40:20.058Z,1011.56
2017-10-09T03:41:20.040Z,1011.62
2017-10-09T03:42:20.025Z,1011.56
2017-10-09T03:43:20.004Z,1011.59
2017-10-09T03:44:19.985Z,1011.6
2017-10-09T03:45:19.966Z,1011.61
2017-10-09T03:46:19.948Z,1011.58
2017-10-09T03:47:19.929Z,1011.58
2017-10-09T03:48:19.910Z,1011.55
2017-10-09T03:49:19.892Z,1011.57
2017-10-09T03:50:19.875Z,1011.55
2017-10-09T03:51:19.857Z,1011.55
2017-10-09T03:52:19.838Z,1011.53
2017-10-09T03:53:19.820Z,1011.54
2017-10-09T03:54:19.803Z,1011.54
2017-10-09T03:55:19.785Z,1011.51
2017-10-09T03:56:19.767Z,1011.52
2017-10-09T03:57:19.753Z,1011.52
2017-10-09T03:58:19.735Z,1011.49
2017-10-09T03:59:19.715Z,1011.57
2017-10-09T04:00:19.696Z,1011.56
2017-10-09T04:01:19.676Z,1011.61
2017-10-09T04:02:19.659Z,1011.57
2017-10-09T04:03:19.641Z,1011.56
2017-10-09T04:04:19.630Z,1011.62
2017-10-09T04:05:19.606Z,1011.61
2017-10-09T04:06:19.587Z,1011.59
2017-10-09T04:07:19.568Z,1011.58
2017-10-09T04:08:19.549Z,1011.57
2017-10-09T04:09:19.532Z,1011.58
2017-10-09T04:10:19.515Z,1011.56
2017-10-09T04:11:19.493Z,1011.54
2017-10-09T04:12:19.477Z,1011.54
2017-10-09T04:13:19.459Z,1011.54
2017-10-09T04:14:19.439Z,1011.56
2017-10-09T04:15:19.422Z,1011.56
2017-10-09T04:16:19.407Z,1011.6
2017-10-09T04:17:19.386Z,1011.59
2017-10-09T04:18:19.368Z,1011.61
2017-10-09T04:19:19.354Z,1011.62
2017-10-09T04:20:19.332Z,1011.64
2017-10-09T04:21:19.315Z,1011.63
2017-10-09T04:22:19.300Z,1011.67
2017-10-09T04:23:19.277Z,1011.69
2017-10-09T04:24:19.260Z,1011.68
2017-10-09T04:25:19.241Z,1011.65
2017-10-09T04:26:19.223Z,1011.66
2017-10-09T04:27:19.204Z,1011.67
2017-10-09T04:28:19.187Z,1011.64
2017-10-09T04:29:19.167Z,1011.59
2017-10-09T04:30:19.151Z,1011.6
2017-10-09T04:31:19.133Z,1011.62
2017-10-09T04:32:19.113Z,1011.63
2017-10-09T04:33:19.096Z,1011.63
2017-10-09T04:34:19.079Z,1011.63
2017-10-09T04:35:19.064Z,1011.59
2017-10-09T04:36:19.043Z,1011.64
2017-10-09T04:37:19.025Z,1011.58
2017-10-09T04:38:19.013Z,1011.58
2017-10-09T04:39:18.991Z,1011.53
2017-10-09T04:40:18.985Z,1011.51
2017-10-09T04:41:18.959Z,1011.5
2017-10-09T04:42:18.936Z,1011.42
2017-10-09T04:43:18.917Z,1011.42
2017-10-09T04:44:18.903Z,1011.43
2017-10-09T04:45:18.886Z,1011.42
2017-10-09T04:46:18.867Z,1011.48
2017-10-09T04:47:18.846Z,1011.45
2017-10-09T04:48:18.829Z,1011.39
2017-10-09T04:49:18.812Z,1011.41
2017-10-09T04:50:18.796Z,1011.47
2017-10-09T04:51:18.775Z,1011.47
2017-10-09T04:52:18.760Z,1011.5
2017-10-09T04:53:18.741Z,1011.51
2017-10-09T04:54:18.721Z,1011.52
2017-10-09T04:55:18.706Z,1011.51
2017-10-09T04:56:18.687Z,1011.56
2017-10-09T04:57:18.670Z,1011.57
2017-10-09T04:58:18.650Z,1011.54
2017-10-09T04:59:18.634Z,1011.54
2017-10-09T05:00:18.615Z,1011.5
2017-10-09T05:01:18.600Z,1011.54
2017-10-09T05:02:18.578Z,1011.53
2017-10-09T05:03:18.561Z,1011.49
2017-10-09T05:04:18.548Z,1011.52
2017-10-09T05:05:18.524Z,1011.5
2017-10-09T05:06:18.508Z,1011.48
2017-10-09T05:07:18.490Z,1011.44
2017-10-09T05:08:18.472Z,1011.44
2017-10-09T05:09:18.462Z,1011.38
2017-10-09T05:10:18.436Z,1011.38
2017-10-09T05:11:18.422Z,1011.41
2017-10-09T05:12:18.402Z,1011.41
2017-10-09T05:13:18.384Z,1011.4
2017-10-09T05:14:18.367Z,1011.37
2017-10-09T05:15:18.347Z,1011.39
2017-10-09T05:16:18.332Z,1011.34
2017-10-09T05:17:18.313Z,1011.36
2017-10-09T05:18:18.295Z,1011.35
2017-10-09T05:19:18.278Z,1011.3
2017-10-09T05:20:18.258Z,1011.31
2017-10-09T05:21:18.241Z,1011.28
2017-10-09T05:22:18.224Z,1011.3
2017-10-09T05:23:18.205Z,1011.27
2017-10-09T05:24:18.187Z,1011.3
2017-10-09T05:25:18.170Z,1011.31
2017-10-09T05:26:18.152Z,1011.27
2017-10-09T05:27:18.132Z,1011.32
2017-10-09T05:28:18.119Z,1011.28
2017-10-09T05:29:18.099Z,1011.3
2017-10-09T05:30:18.082Z,1011.27
2017-10-09T05:31:18.065Z,1011.28
2017-10-09T05:32:18.045Z,1011.33
2017-10-09T05:33:18.028Z,1011.32
2017-10-09T05:34:18.010Z,1011.29
2017-10-09T05:35:17.991Z,1011.34
2017-10-09T05:36:17.973Z,1011.32
2017-10-09T05:37:17.956Z,1011.36
2017-10-09T05:38:17.936Z,1011.36
2017-10-09T05:39:17.918Z,1011.37
2017-10-09T05:40:17.901Z,1011.41
2017-10-09T05:41:17.885Z,1011.37
2017-10-09T05:42:17.866Z,1011.38
2017-10-09T05:43:17.849Z,1011.42
2017-10-09T05:44:17.830Z,1011.37
2017-10-09T05:45:17.812Z,1011.37
2017-10-09T05:46:17.794Z,1011.37
2017-10-09T05:47:17.775Z,1011.39
2017-10-09T05:48:17.757Z,1011.39
2017-10-09T05:49:17.740Z,1011.42
2017-10-09T05:50:17.723Z,1011.4
2017-10-09T05:51:17.702Z,1011.43
2017-10-09T05:52:17.685Z,1011.39
2017-10-09T05:53:17.667Z,1011.43
2017-10-09T05:54:17.650Z,1011.43
2017-10-09T05:55:17.680Z,1011.44
2017-10-09T05:56:17.612Z,1011.42
2017-10-09T05:57:17.595Z,1011.45
2017-10-09T05:58:17.575Z,1011.43
2017-10-09T05:59:17.557Z,1011.46
2017-10-09T06:00:17.539Z,1011.44
2017-10-09T06:01:17.528Z,1011.43
2017-10-09T06:02:17.508Z,1011.41
2017-10-09T06:03:17.486Z,1011.39
2017-10-09T06:04:17.470Z,1011.41
2017-10-09T06:05:17.451Z,1011.41
2017-10-09T06:06:17.433Z,1011.43
2017-10-09T06:07:17.416Z,1011.42
2017-10-09T06:08:17.396Z,1011.43
2017-10-09T06:09:17.378Z,1011.51
2017-10-09T06:10:17.359Z,1011.47
2017-10-09T06:11:17.342Z,1011.45
2017-10-09T06:12:17.326Z,1011.5
2017-10-09T06:13:17.306Z,1011.49
2017-10-09T06:14:17.290Z,1011.41
2017-10-09T06:15:17.271Z,1011.42
2017-10-09T06:16:17.254Z,1011.38
2017-10-09T06:17:17.235Z,1011.39
2017-10-09T06:18:17.222Z,1011.41
2017-10-09T06:19:17.200Z,1011.39
2017-10-09T06:20:17.182Z,1011.41
2017-10-09T06:21:17.163Z,1011.39
2017-10-09T06:22:17.145Z,1011.41
2017-10-09T06:23:17.129Z,1011.37
2017-10-09T06:24:17.112Z,1011.36
2017-10-09T06:25:17.091Z,1011.35
2017-10-09T06:26:17.074Z,1011.38
2017-10-09T06:27:17.056Z,1011.32
2017-10-09T06:28:17.039Z,1011.33
2017-10-09T06:29:17.019Z,1011.35
2017-10-09T06:30:17.002Z,1011.28
2017-10-09T06:31:16.994Z,1011.29
2017-10-09T06:32:16.971Z,1011.3
2017-10-09T06:33:16.953Z,1011.33
2017-10-09T06:34:16.931Z,1011.29
2017-10-09T06:35:16.918Z,1011.31
2017-10-09T06:36:16.897Z,1011.27
2017-10-09T06:37:16.879Z,1011.29
2017-10-09T06:38:16.861Z,1011.33
2017-10-09T06:39:16.847Z,1011.34
2017-10-09T06:40:16.825Z,1011.36
2017-10-09T06:41:16.810Z,1011.39
2017-10-09T06:42:16.793Z,1011.35
2017-10-09T06:43:16.776Z,1011.38
2017-10-09T06:44:16.759Z,1011.33
2017-10-09T06:45:16.742Z,1011.39
2017-10-09T06:46:16.723Z,1011.34
2017-10-09T06:47:16.705Z,1011.35
2017-10-09T06:48:16.689Z,1011.32
2017-10-09T06:49:16.672Z,1011.38
2017-10-09T06:50:16.654Z,1011.38
2017-10-09T06:51:16.638Z,1011.4
2017-10-09T06:52:16.620Z,1011.38
2017-10-09T06:53:16.604Z,1011.38
2017-10-09T06:54:16.587Z,1011.35
2017-10-09T06:55:16.568Z,1011.41
2017-10-09T06:56:16.552Z,1011.39
2017-10-09T06:57:16.534Z,1011.46
2017-10-09T06:58:16.519Z,1011.41
2017-10-09T06:59:16.500Z,1011.41
2017-10-09T07:00:16.484Z,1011.39
2017-10-09T07:01:16.467Z,1011.45
2017-10-09T07:02:16.450Z,1011.42
2017-10-09T07:03:16.433Z,1011.4
2017-10-09T07:04:16.415Z,1011.42
2017-10-09T07:05:16.397Z,1011.4
2017-10-09T07:06:16.381Z,1011.41
2017-10-09T07:07:16.365Z,1011.43
2017-10-09T07:08:16.346Z,1011.44
2017-10-09T07:09:16.331Z,1011.46
2017-10-09T07:10:16.316Z,1011.46
2017-10-09T07:11:16.295Z,1011.49
2017-10-09T07:12:16.279Z,1011.5
2017-10-09T07:13:16.261Z,1011.47
2017-10-09T07:14:16.243Z,1011.53
2017-10-09T07:15:16.230Z,1011.54
2017-10-09T07:16:16.210Z,1011.52
2017-10-09T07:17:16.194Z,1011.54
2017-10-09T07:18:16.176Z,1011.55
2017-10-09T07:19:16.161Z,1011.58
2017-10-09T07:20:16.145Z,1011.61
2017-10-09T07:21:16.130Z,1011.61
2017-10-09T07:22:16.115Z,1011.62
2017-10-09T07:23:16.100Z,1011.67
2017-10-09T07:24:16.078Z,1011.64
2017-10-09T07:25:16.061Z,1011.68
2017-10-09T07:26:16.044Z,1011.68
2017-10-09T07:27:16.029Z,1011.67
2017-10-09T07:28:16.010Z,1011.67
2017-10-09T07:29:15.992Z,1011.69
2017-10-09T07:30:15.975Z,1011.69
2017-10-09T07:31:15.960Z,1011.68
2017-10-09T07:32:15.943Z,1011.69
2017-10-09T07:33:15.926Z,1011.67
2017-10-09T07:34:15.910Z,1011.7
2017-10-09T07:35:15.894Z,1011.69
2017-10-09T07:36:15.878Z,1011.69
2017-10-09T07:37:15.861Z,1011.7
2017-10-09T07:38:15.843Z,1011.69
2017-10-09T07:39:15.825Z,1011.72
2017-10-09T07:40:15.810Z,1011.75
2017-10-09T07:41:15.792Z,1011.69
2017-10-09T07:42:15.776Z,1011.7
2017-10-09T07:43:15.761Z,1011.69
2017-10-09T07:44:15.743Z,1011.71
2017-10-09T07:45:15.728Z,1011.72
2017-10-09T07:46:15.711Z,1011.7
2017-10-09T07:47:15.695Z,1011.73
2017-10-09T07:48:15.678Z,1011.72
2017-10-09T07:49:15.662Z,1011.72
2017-10-09T07:50:15.645Z,1011.71
2017-10-09T07:51:15.628Z,1011.69
2017-10-09T07:52:15.611Z,1011.69
2017-10-09T07:53:15.601Z,1011.71
2017-10-09T07:54:15.579Z,1011.68
2017-10-09T07:55:15.563Z,1011.72
2017-10-09T07:56:15.546Z,1011.71
2017-10-09T07:57:15.531Z,1011.71
2017-10-09T07:58:15.513Z,1011.71
2017-10-09T07:59:15.499Z,1011.71
2017-10-09T08:00:15.490Z,1011.75
2017-10-09T08:01:15.465Z,1011.71
2017-10-09T08:02:15.449Z,1011.73
2017-10-09T08:03:15.433Z,1011.73
2017-10-09T08:04:15.417Z,1011.73
2017-10-09T08:05:15.402Z,1011.76
2017-10-09T08:06:15.388Z,1011.72
2017-10-09T08:07:15.369Z,1011.73
2017-10-09T08:08:15.352Z,1011.76
2017-10-09T08:09:15.338Z,1011.71
2017-10-09T08:10:15.325Z,1011.69
2017-10-09T08:11:15.306Z,1011.68
2017-10-09T08:12:15.289Z,1011.67
2017-10-09T08:13:15.274Z,1011.69
2017-10-09T08:14:15.258Z,1011.69
2017-10-09T08:15:15.243Z,1011.7
2017-10-09T08:16:15.227Z,1011.69
2017-10-09T08:17:15.212Z,1011.69
2017-10-09T08:18:15.398Z,1011.65
2017-10-09T08:19:15.177Z,1011.68
2017-10-09T08:20:15.163Z,1011.66
2017-10-09T08:21:15.150Z,1011.65
2017-10-09T08:22:15.136Z,1011.62
2017-10-09T08:23:15.118Z,1011.64
2017-10-09T08:24:15.103Z,1011.62
2017-10-09T08:25:15.089Z,1011.62
2017-10-09T08:26:15.072Z,1011.63
2017-10-09T08:27:15.058Z,1011.61
2017-10-09T08:28:15.043Z,1011.64
2017-10-09T08:29:15.027Z,1011.67
2017-10-09T08:30:15.012Z,1011.66
2017-10-09T08:31:14.995Z,1011.7
2017-10-09T08:32:14.982Z,1011.69
2017-10-09T08:33:14.965Z,1011.73
2017-10-09T08:34:14.949Z,1011.72
2017-10-09T08:35:14.937Z,1011.73
2017-10-09T08:36:14.921Z,1011.73
2017-10-09T08:37:14.903Z,1011.73
2017-10-09T08:38:14.890Z,1011.76
2017-10-09T08:39:14.874Z,1011.7
2017-10-09T08:40:14.860Z,1011.72
2017-10-09T08:41:14.844Z,1011.71
2017-10-09T08:42:14.829Z,1011.71
2017-10-09T08:43:14.814Z,1011.77
2017-10-09T08:44:14.798Z,1011.74
2017-10-09T08:45:14.783Z,1011.73
2017-10-09T08:46:14.769Z,1011.74
2017-10-09T08:47:14.758Z,1011.64
2017-10-09T08:48:14.738Z,1011.66
2017-10-09T08:49:14.723Z,1011.69
2017-10-09T08:50:14.709Z,1011.66
2017-10-09T08:51:14.694Z,1011.67
2017-10-09T08:52:14.678Z,1011.67
2017-10-09T08:53:14.665Z,1011.66
2017-10-09T08:54:14.647Z,1011.69
2017-10-09T08:55:14.632Z,1011.68
2017-10-09T08:56:14.619Z,1011.71
2017-10-09T08:57:14.608Z,1011.73
2017-10-09T08:58:14.590Z,1011.72
2017-10-09T08:59:14.574Z,1011.73
2017-10-09T09:00:14.557Z,1011.75
2017-10-09T09:01:14.545Z,1011.72
2017-10-09T09:02:14.526Z,1011.72
2017-10-09T09:03:14.513Z,1011.72
2017-10-09T09:04:14.498Z,1011.71
2017-10-09T09:05:14.480Z,1011.75
2017-10-09T09:06:14.464Z,1011.74
2017-10-09T09:07:14.451Z,1011.7
2017-10-09T09:08:14.436Z,1011.75
2017-10-09T09:09:14.423Z,1011.76
2017-10-09T09:10:14.405Z,1011.74
2017-10-09T09:11:14.391Z,1011.76
2017-10-09T09:12:14.380Z,1011.79
2017-10-09T09:13:14.360Z,1011.77
2017-10-09T09:14:14.346Z,1011.78
2017-10-09T09:15:14.332Z,1011.83
2017-10-09T09:16:14.314Z,1011.8
2017-10-09T09:17:14.300Z,1011.84
2017-10-09T09:18:14.287Z,1011.86
2017-10-09T09:19:14.271Z,1011.84
2017-10-09T09:20:14.254Z,1011.82
2017-10-09T09:21:14.240Z,1011.85
2017-10-09T09:22:14.227Z,1011.82
2017-10-09T09:23:14.210Z,1011.79
2017-10-09T09:24:14.193Z,1011.83
2017-10-09T09:25:14.179Z,1011.82
2017-10-09T09:26:14.166Z,1011.87
2017-10-09T09:27:14.149Z,1011.86
2017-10-09T09:28:14.138Z,1011.9
2017-10-09T09:29:14.119Z,1011.88
2017-10-09T09:30:14.103Z,1011.84
2017-10-09T09:31:14.088Z,1011.82
2017-10-09T09:32:14.074Z,1011.79
2017-10-09T09:33:14.059Z,1011.83
2017-10-09T09:34:14.041Z,1011.81
2017-10-09T09:35:14.026Z,1011.82
2017-10-09T09:36:14.010Z,1011.81
2017-10-09T09:37:13.996Z,1011.8
2017-10-09T09:38:13.986Z,1011.82
2017-10-09T09:39:13.964Z,1011.83
2017-10-09T09:40:13.949Z,1011.83
2017-10-09T09:41:13.938Z,1011.83
2017-10-09T09:42:13.920Z,1011.84
2017-10-09T09:43:13.903Z,1011.82
2017-10-09T09:44:13.889Z,1011.8
2017-10-09T09:45:13.876Z,1011.79
2017-10-09T09:46:13.858Z,1011.82
2017-10-09T09:47:13.842Z,1011.79
2017-10-09T09:48:13.826Z,1011.78
2017-10-09T09:49:13.811Z,1011.76
2017-10-09T09:50:13.793Z,1011.74
2017-10-09T09:51:13.778Z,1011.74
2017-10-09T09:52:13.767Z,1011.73
2017-10-09T09:53:13.748Z,1011.75
2017-10-09T09:54:13.732Z,1011.74
2017-10-09T09:55:13.716Z,1011.74
2017-10-09T09:56:13.706Z,1011.78
2017-10-09T09:57:13.686Z,1011.77
2017-10-09T09:58:13.672Z,1011.79
2017-10-09T09:59:13.653Z,1011.75
2017-10-09T10:00:13.640Z,1011.73
2017-10-09T10:01:13.623Z,1011.74
2017-10-09T10:02:13.611Z,1011.74
2017-10-09T10:03:13.593Z,1011.75
2017-10-09T10:04:13.578Z,1011.73
2017-10-09T10:05:13.563Z,1011.74
2017-10-09T10:06:13.550Z,1011.76
2017-10-09T10:07:13.533Z,1011.75
2017-10-09T10:08:13.516Z,1011.69
2017-10-09T10:09:13.502Z,1011.72
2017-10-09T10:10:13.486Z,1011.68
2017-10-09T10:11:13.471Z,1011.66
2017-10-09T10:12:13.457Z,1011.68
2017-10-09T10:13:13.442Z,1011.67
2017-10-09T10:14:13.428Z,1011.71
2017-10-09T10:15:13.413Z,1011.67
2017-10-09T10:16:13.397Z,1011.71
2017-10-09T10:17:13.381Z,1011.72
2017-10-09T10:18:13.571Z,1011.72
2017-10-09T10:19:13.353Z,1011.74
2017-10-09T10:20:13.338Z,1011.73
2017-10-09T10:21:13.322Z,1011.78
2017-10-09T10:22:13.308Z,1011.75
2017-10-09T10:23:13.293Z,1011.8
2017-10-09T10:24:13.277Z,1011.75
2017-10-09T10:25:13.268Z,1011.74
2017-10-09T10:26:13.251Z,1011.72
2017-10-09T10:27:13.232Z,1011.72
2017-10-09T10:28:13.217Z,1011.71
2017-10-09T10:29:13.203Z,1011.71
2017-10-09T10:30:13.191Z,1011.71
2017-10-09T10:31:13.174Z,1011.69
2017-10-09T10:32:13.160Z,1011.68
2017-10-09T10:33:13.150Z,1011.66
2017-10-09T10:34:13.130Z,1011.67
2017-10-09T10:35:13.116Z,1011.64
2017-10-09T10:36:13.101Z,1011.64
2017-10-09T10:37:13.086Z,1011.65
2017-10-09T10:38:13.076Z,1011.62
2017-10-09T10:39:13.081Z,1011.63
2017-10-09T10:40:13.045Z,1011.64
2017-10-09T10:41:13.028Z,1011.62
2017-10-09T10:42:13.018Z,1011.58
2017-10-09T10:43:12.998Z,1011.59
2017-10-09T10:44:12.985Z,1011.62
2017-10-09T10:45:12.969Z,1011.64
2017-10-09T10:46:12.955Z,1011.6
2017-10-09T10:47:12.939Z,1011.59
2017-10-09T10:48:12.926Z,1011.61
2017-10-09T10:49:12.910Z,1011.62
2017-10-09T10:50:12.897Z,1011.6
2017-10-09T10:51:12.882Z,1011.6
2017-10-09T10:52:12.868Z,1011.58
2017-10-09T10:53:12.850Z,1011.57
2017-10-09T10:54:12.837Z,1011.57
2017-10-09T10:55:12.823Z,1011.56
2017-10-09T10:56:12.806Z,1011.53
2017-10-09T10:57:12.794Z,1011.52
2017-10-09T10:58:12.779Z,1011.49
2017-10-09T10:59:12.763Z,1011.48
2017-10-09T11:00:12.750Z,1011.46
2017-10-09T11:01:12.735Z,1011.45
2017-10-09T11:02:12.723Z,1011.49
2017-10-09T11:03:12.706Z,1011.45
2017-10-09T11:04:12.690Z,1011.46
2017-10-09T11:05:12.679Z,1011.49
2017-10-09T11:06:12.661Z,1011.4
2017-10-09T11:07:12.647Z,1011.42
2017-10-09T11:08:12.633Z,1011.44
2017-10-09T11:09:12.619Z,1011.41
2017-10-09T11:10:12.605Z,1011.39
2017-10-09T11:11:12.592Z,1011.4
2017-10-09T11:12:12.576Z,1011.36
2017-10-09T11:13:12.562Z,1011.39
2017-10-09T11:14:12.548Z,1011.32
2017-10-09T11:15:12.535Z,1011.38
2017-10-09T11:16:12.521Z,1011.37
2017-10-09T11:17:12.511Z,1011.38
2017-10-09T11:18:12.493Z,1011.35
2017-10-09T11:19:12.481Z,1011.34
2017-10-09T11:20:12.466Z,1011.33
2017-10-09T11:21:12.455Z,1011.31
2017-10-09T11:22:12.441Z,1011.28
2017-10-09T11:23:12.425Z,1011.28
2017-10-09T11:24:12.414Z,1011.27
2017-10-09T11:25:12.401Z,1011.26
2017-10-09T11:26:12.386Z,1011.23
2017-10-09T11:27:12.374Z,1011.25
2017-10-09T11:28:12.359Z,1011.2
2017-10-09T11:29:12.350Z,1011.19
2017-10-09T11:30:12.336Z,1011.23
2017-10-09T11:31:12.320Z,1011.21
2017-10-09T11:32:12.308Z,1011.2
2017-10-09T11:33:12.299Z,1011.18
2017-10-09T11:34:12.282Z,1011.22
2017-10-09T11:35:12.273Z,1011.2
2017-10-09T11:36:12.255Z,1011.22
2017-10-09T11:37:12.244Z,1011.14
2017-10-09T11:38:12.235Z,1011.14
2017-10-09T11:39:12.219Z,1011.16
2017-10-09T11:40:12.208Z,1011.14
2017-10-09T11:41:12.191Z,1011.15
2017-10-09T11:42:12.178Z,1011.14
2017-10-09T11:43:12.166Z,1011.12
2017-10-09T11:44:12.154Z,1011.13
2017-10-09T11:45:12.144Z,1011.13
2017-10-09T11:46:12.127Z,1011.16
2017-10-09T11:47:12.114Z,1011.14
2017-10-09T11:48:12.101Z,1011.12
2017-10-09T11:49:12.091Z,1011.12
2017-10-09T11:50:12.079Z,1011.12
2017-10-09T11:51:12.064Z,1011.11
2017-10-09T11:52:12.052Z,1011.08
2017-10-09T11:53:12.043Z,1011.04
2017-10-09T11:54:12.027Z,1011.02
2017-10-09T11:55:12.018Z,1010.98
2017-10-09T11:56:12.001Z,1010.94
2017-10-09T11:57:11.991Z,1010.96
2017-10-09T11:58:11.976Z,1010.94
2017-10-09T11:59:11.965Z,1010.92
2017-10-09T12:00:11.951Z,1010.92
2017-10-09T12:01:11.939Z,1010.9
2017-10-09T12:02:11.926Z,1010.96
2017-10-09T12:03:11.912Z,1010.93
2017-10-09T12:04:11.899Z,1010.92
2017-10-09T12:05:11.886Z,1010.93
2017-10-09T12:06:11.874Z,1010.93
2017-10-09T12:07:11.863Z,1010.93